Data for 01/15/2014

Time Sea-Level Adjusted Pressure Absolute Pressure Temperature Relative Humidity Dew Point   
(mb) (inHg) (mb) (inHg) (C) (F) (%) (C) (F)
00:05 1027 30.33 856 25.28 2.6 36.8 52 -6.3 20.7
00:10 1027 30.33 856 25.28 2.7 36.9 51 -6.3 20.6
00:15 1027 30.33 856 25.28 2.5 36.5 54 -5.8 21.6
00:20 1027 30.33 856 25.28 1.1 34.1 59 -5.9 21.3
00:25 1027 30.33 856 25.28 1.1 34.1 56 -6.6 20
00:30 1027 30.33 856 25.28 1.2 34.1 57 -6.4 20.5
00:35 1027 30.33 856 25.28 1.3 34.3 56 -6.6 20.1
00:40 1027 30.33 856 25.28 1.8 35.2 52 -7 19.3
00:45 1027 30.33 856 25.28 2.1 35.9 52 -6.7 20
00:50 1027 30.33 856 25.28 2.1 35.7 53 -6.5 20.3
00:55 1027 30.33 856 25.28 1.3 34.3 58 -6.1 21
01:00 1027 30.33 856 25.28 0.6 33 58 -6.8 19.7
01:05 1027 30.33 856 25.28 0.7 33.2 57 -6.8 19.7
01:10 1027 30.33 856 25.28 0.7 33.3 59 -6.5 20.3
01:15 1027 30.33 856 25.28 0.4 32.8 59 -6.6 20.1
01:20 1026 30.3 856 25.28 0.6 33.1 58 -6.8 19.8
01:25 1026 30.3 856 25.28 1.1 33.9 57 -6.5 20.3
01:30 1026 30.3 856 25.28 1.7 35 53 -6.9 19.7
01:35 1026 30.3 855 25.25 2.3 36.2 52 -6.6 20.2
01:40 1026 30.3 855 25.25 2.5 36.5 52 -6.5 20.3
01:45 1026 30.3 855 25.25 2.6 36.6 51 -6.5 20.3
01:50 1026 30.3 855 25.25 2.7 36.8 51 -6.5 20.3
01:55 1026 30.3 855 25.25 2.6 36.7 52 -6.4 20.5
02:00 1026 30.3 855 25.25 2.4 36.3 51 -6.7 20
02:05 1026 30.3 855 25.25 2.4 36.3 51 -6.7 20
02:10 1026 30.3 855 25.25 2.4 36.3 51 -6.7 20
02:15 1026 30.3 855 25.25 2.3 36.2 53 -6.3 20.7
02:20 1026 30.3 855 25.25 1 33.9 56 -6.8 19.7
02:25 1026 30.3 855 25.25 0.8 33.4 55 -7.2 19.1
02:30 1026 30.3 855 25.25 1.2 34.1 54 -7.2 19
02:35 1026 30.3 855 25.25 1.4 34.5 53 -7 19.4
02:40 1026 30.3 855 25.25 1.1 34 56 -6.8 19.8
02:45 1026 30.3 855 25.25 0.5 33 57 -7.1 19.2
02:50 1026 30.3 855 25.25 0.7 33.2 56 -7.1 19.2
02:55 1026 30.3 855 25.25 0 32 59 -7.1 19.2
03:00 1026 30.3 855 25.25 -0.1 31.7 58 -7.3 18.8
03:05 1026 30.3 855 25.25 -0.2 31.6 60 -7.1 19.1
03:10 1026 30.3 855 25.25 0.1 32.2 62 -6.4 20.5
03:15 1026 30.3 855 25.25 0.5 32.9 56 -7.3 18.9
03:20 1026 30.3 855 25.25 0.5 32.9 55 -7.5 18.4
03:25 1026 30.3 855 25.25 0.6 33.1 54 -7.6 18.4
03:30 1026 30.3 855 25.25 1 33.9 54 -7.3 18.8
03:35 1026 30.3 855 25.25 1.3 34.3 53 -7.3 18.9
03:40 1026 30.3 855 25.25 1.3 34.3 55 -6.8 19.7
03:45 1026 30.3 855 25.25 0.3 32.6 59 -6.8 19.7
03:50 1026 30.3 855 25.25 0.1 32.2 57 -7.3 18.8
03:55 1026 30.3 855 25.25 0.4 32.7 56 -7.3 18.9
04:00 1026 30.3 855 25.25 0.8 33.4 56 -7.1 19.2
04:05 1026 30.3 855 25.25 1 33.7 55 -7 19.4
04:10 1026 30.3 855 25.25 0.3 32.5 59 -6.8 19.8
04:15 1026 30.3 855 25.25 -0.4 31.3 60 -7.3 18.9
04:20 1026 30.3 855 25.25 -0.5 31.2 61 -7.1 19.1
04:25 1026 30.3 855 25.25 -0.5 31.2 58 -7.8 17.9
04:30 1026 30.3 855 25.25 -0.1 31.9 56 -7.9 17.8
04:35 1026 30.3 855 25.25 1 33.8 52 -7.7 18.1
04:40 1026 30.3 855 25.25 1.3 34.4 51 -7.8 17.9
04:45 1026 30.3 855 25.25 1.5 34.7 53 -7.2 19
04:50 1026 30.3 855 25.25 0.8 33.5 55 -7.2 19
04:55 1026 30.3 855 25.25 0.5 32.8 54 -7.7 18.2
05:00 1026 30.3 855 25.25 0.6 33 54 -7.8 18
05:05 1026 30.3 855 25.25 0.8 33.4 53 -7.7 18.2
05:10 1025 30.27 855 25.25 0.7 33.3 54 -7.5 18.5
05:15 1025 30.27 855 25.25 0.5 32.9 53 -8 17.5
05:20 1025 30.27 855 25.25 0.6 33 51 -8.4 16.9
05:25 1025 30.27 854 25.22 1 33.8 49 -8.4 16.8
05:30 1025 30.27 854 25.22 0.9 33.6 50 -8.5 16.7
05:35 1025 30.27 854 25.22 1.1 34 48 -8.6 16.5
05:40 1025 30.27 854 25.22 1.5 34.8 50 -7.9 17.7
05:45 1025 30.27 854 25.22 1.6 34.9 46 -8.8 16.2
05:50 1025 30.27 854 25.22 2.1 35.9 44 -8.8 16.2
05:55 1025 30.27 854 25.22 2.4 36.3 42 -9.1 15.5
06:00 1025 30.27 854 25.22 2.5 36.4 43 -8.9 16
06:05 1025 30.27 854 25.22 2.4 36.4 43 -9 15.7
06:10 1025 30.27 854 25.22 2.5 36.6 42 -9.2 15.5
06:15 1025 30.27 854 25.22 2.6 36.6 42 -9.1 15.7
06:20 1025 30.27 854 25.22 2.5 36.5 43 -8.9 16
06:25 1025 30.27 854 25.22 2.5 36.5 42 -9.3 15.3
06:30 1025 30.27 854 25.22 2.7 36.8 38 -10.4 13.2
06:35 1025 30.27 854 25.22 3.1 37.5 37 -10.3 13.5
06:40 1025 30.27 854 25.22 3.1 37.5 38 -9.9 14.3
06:45 1025 30.27 854 25.22 2.8 37.1 39 -9.8 14.4
06:50 1025 30.27 854 25.22 2.5 36.4 41 -9.6 14.8
06:55 1025 30.27 854 25.22 2.1 35.8 41 -9.8 14.3
07:00 1025 30.27 854 25.22 2.4 36.3 40 -10 14.1
07:05 1025 30.27 855 25.25 2.3 36.1 41 -9.5 14.9
07:10 1025 30.27 854 25.22 2 35.7 42 -9.5 14.9
07:15 1025 30.27 854 25.22 2 35.5 42 -9.7 14.6
07:20 1025 30.27 855 25.25 2 35.6 41 -9.8 14.4
07:25 1025 30.27 855 25.25 2.1 35.8 42 -9.6 14.8
07:30 1025 30.27 854 25.22 2 35.7 41 -9.9 14.3
07:35 1025 30.27 854 25.22 2 35.7 41 -9.8 14.4
07:40 1025 30.27 854 25.22 2.1 35.7 41 -9.9 14.1
07:45 1025 30.27 854 25.22 2.2 36 40 -10 14.1
07:50 1025 30.27 854 25.22 2.2 36 40 -10.1 13.8
07:55 1025 30.27 854 25.22 2.5 36.4 38 -10.4 13.3
08:00 1025 30.27 854 25.22 2.6 36.7 38 -10.3 13.5
08:05 1025 30.27 854 25.22 2.7 36.8 38 -10.3 13.5
08:10 1025 30.27 854 25.22 2.6 36.7 39 -10.1 13.8
08:15 1025 30.27 854 25.22 2.4 36.3 41 -9.7 14.6
08:20 1025 30.27 854 25.22 2.1 35.8 42 -9.5 14.9
08:25 1025 30.27 854 25.22 2.1 35.7 39 -10.3 13.4
08:30 1025 30.27 854 25.22 2.4 36.4 38 -10.4 13.3
08:35 1025 30.27 854 25.22 2.5 36.5 40 -9.9 14.1
08:40 1025 30.27 854 25.22 2.3 36.1 40 -9.9 14.2
08:45 1025 30.27 854 25.22 2.2 35.9 42 -9.6 14.8
08:50 1025 30.27 854 25.22 1.6 35 41 -10.2 13.6
08:55 1025 30.27 854 25.22 2.1 35.8 39 -10.6 13
09:00 1025 30.27 854 25.22 2.6 36.8 36 -11.1 12
09:05 1025 30.27 854 25.22 3 37.4 35 -10.8 12.5
09:10 1025 30.27 855 25.25 3 37.4 37 -10.4 13.3
09:15 1026 30.3 855 25.25 2.9 37.2 37 -10.5 13.1
09:20 1025 30.27 855 25.25 2.9 37.2 37 -10.4 13.2
09:25 1025 30.27 855 25.25 2.7 36.8 39 -10.1 13.8
09:30 1025 30.27 855 25.25 2.5 36.6 38 -10.5 13.2
09:35 1025 30.27 855 25.25 2.8 37 38 -10.1 13.8
09:40 1025 30.27 855 25.25 2.3 36.2 41 -9.8 14.4
09:45 1025 30.27 855 25.25 2.3 36.1 39 -10.2 13.7
09:50 1025 30.27 854 25.22 2.3 36.2 39 -10.2 13.6
09:55 1025 30.27 854 25.22 2.5 36.5 37 -10.6 12.8
10:00 1025 30.27 854 25.22 2.7 36.9 37 -10.7 12.7
10:05 1025 30.27 854 25.22 2.9 37.2 36 -10.7 12.8
10:10 1025 30.27 854 25.22 2.9 37.3 36 -10.7 12.7
10:15 1025 30.27 854 25.22 2.9 37.2 36 -10.7 12.7
10:20 1025 30.27 854 25.22 2.9 37.2 35 -11 12.1
10:25 1025 30.27 854 25.22 3.1 37.7 36 -10.7 12.8
10:30 1025 30.27 854 25.22 3.2 37.8 36 -10.5 13.1
10:35 1025 30.27 855 25.25 2.8 37 40 -9.5 14.9
10:40 1025 30.27 854 25.22 2.4 36.3 39 -10.2 13.7
10:45 1025 30.27 854 25.22 2.7 36.8 36 -11.1 12.1
10:50 1025 30.27 854 25.22 3.1 37.6 35 -10.8 12.5
10:55 1025 30.27 854 25.22 3.2 37.8 36 -10.6 13
11:00 1025 30.27 854 25.22 3.2 37.7 34 -11.3 11.7
11:05 1025 30.27 854 25.22 3.4 38 34 -10.9 12.4
11:10 1025 30.27 854 25.22 3.7 38.6 34 -10.8 12.5
11:15 1025 30.27 854 25.22 4 39.2 33 -11 12.2
11:20 1025 30.27 854 25.22 4.3 39.7 32 -11 12.1
11:25 1024 30.24 854 25.22 4.6 40.3 31 -11 12.3
11:30 1025 30.27 854 25.22 4.9 40.8 30 -11.2 11.9
11:35 1025 30.27 854 25.22 5.1 41.1 30 -11.2 11.9
11:40 1025 30.27 854 25.22 5 41.1 29 -11.6 11.1
11:45 1025 30.27 854 25.22 5.5 42 29 -11.3 11.6
11:50 1025 30.27 854 25.22 6.3 43.3 27 -11.6 11.1
11:55 1025 30.27 854 25.22 6.9 44.4 25 -11.6 11.1
12:00 1025 30.27 854 25.22 6.9 44.5 25 -11.7 11
12:05 1025 30.27 854 25.22 7.1 44.8 25 -11.5 11.3
12:10 1025 30.27 854 25.22 7.1 44.8 26 -11.1 12
12:15 1025 30.27 854 25.22 7.1 44.8 26 -11.2 11.8
12:20 1025 30.27 854 25.22 7.4 45.3 26 -11.1 12
12:25 1025 30.27 854 25.22 7.7 45.8 25 -11 12.1
12:30 1025 30.27 854 25.22 7.5 45.4 26 -10.7 12.8
12:35 1025 30.27 854 25.22 7.6 45.6 26 -11 12.2
12:40 1025 30.27 854 25.22 7.5 45.5 26 -10.7 12.7
12:45 1025 30.27 855 25.25 7.4 45.4 25 -11.4 11.5
12:50 1025 30.27 855 25.25 7.6 45.7 24 -11.5 11.3
12:55 1025 30.27 855 25.25 8.1 46.6 23 -12 10.4
13:00 1025 30.27 855 25.25 8.4 47.1 22 -12.2 10.1
13:05 1025 30.27 854 25.22 8.5 47.2 22 -11.9 10.5
13:10 1025 30.27 854 25.22 8.7 47.6 22 -12.1 10.3
13:15 1025 30.27 854 25.22 8.6 47.4 23 -11.6 11.2
13:20 1025 30.27 854 25.22 8.3 47 23 -11.6 11.2
13:25 1025 30.27 854 25.22 8.1 46.6 24 -11.2 11.8
13:30 1025 30.27 854 25.22 8.3 46.9 23 -11.8 10.7
13:35 1025 30.27 854 25.22 8.5 47.2 22 -11.9 10.7
13:40 1025 30.27 854 25.22 8.2 46.7 24 -11.5 11.3
13:45 1025 30.27 854 25.22 8.2 46.7 23 -11.9 10.6
13:50 1025 30.27 854 25.22 8.2 46.7 24 -11.4 11.5
13:55 1025 30.27 854 25.22 8.1 46.6 24 -11.5 11.3
14:00 1025 30.27 854 25.22 8 46.5 24 -11.5 11.2
14:05 1025 30.27 854 25.22 8 46.5 23 -11.9 10.6
14:10 1025 30.27 854 25.22 8.2 46.7 24 -11.3 11.6
14:15 1025 30.27 854 25.22 8.1 46.7 24 -11.5 11.2
14:20 1025 30.27 854 25.22 8.1 46.7 23 -11.6 11.2
14:25 1025 30.27 854 25.22 8.1 46.6 23 -11.8 10.7
14:30 1024 30.24 854 25.22 8 46.5 26 -10.2 13.6
14:35 1024 30.24 854 25.22 7.5 45.4 28 -10.1 13.8
14:40 1024 30.24 854 25.22 7.2 45 28 -10.2 13.6
14:45 1024 30.24 853 25.19 7.2 45 27 -10.5 13.2
14:50 1024 30.24 853 25.19 6.8 44.2 31 -9.3 15.3
14:55 1024 30.24 853 25.19 6.5 43.6 31 -9.6 14.6
15:00 1024 30.24 853 25.19 6.6 43.8 30 -9.8 14.3
15:05 1024 30.24 853 25.19 6.7 44.1 30 -9.5 14.8
15:10 1024 30.24 853 25.19 6.8 44.3 28 -10.3 13.5
15:15 1024 30.24 853 25.19 6.9 44.4 28 -10.2 13.6
15:20 1024 30.24 853 25.19 6.9 44.4 32 -8.8 16.2
15:25 1024 30.24 853 25.19 6.7 44.1 28 -10.5 13.2
15:30 1024 30.24 853 25.19 6.7 44.1 30 -9.6 14.7
15:35 1024 30.24 853 25.19 6.9 44.4 30 -9.5 14.9
15:40 1024 30.24 853 25.19 6.9 44.5 29 -9.8 14.4
15:45 1024 30.24 853 25.19 6.9 44.5 29 -10 14
15:50 1024 30.24 853 25.19 6.9 44.4 29 -9.8 14.3
15:55 1024 30.24 854 25.22 6.8 44.2 29 -10 14
16:00 1024 30.24 854 25.22 6.8 44.3 28 -10.4 13.3
16:05 1025 30.27 854 25.22 6.9 44.5 28 -10.2 13.6
16:10 1025 30.27 854 25.22 7 44.6 29 -10 14
16:15 1025 30.27 854 25.22 6.9 44.5 29 -10.1 13.8
16:20 1024 30.24 854 25.22 6.6 43.9 30 -9.9 14.1
16:25 1024 30.24 854 25.22 6.4 43.5 29 -10.3 13.4
16:30 1024 30.24 854 25.22 6.4 43.6 29 -10.3 13.4
16:35 1025 30.27 854 25.22 6.6 43.9 28 -10.8 12.6
16:40 1024 30.24 854 25.22 6.8 44.2 27 -10.9 12.3
16:45 1024 30.24 854 25.22 6.8 44.2 28 -10.6 12.9
16:50 1024 30.24 854 25.22 6.5 43.8 27 -11.2 11.8
16:55 1024 30.24 854 25.22 6.2 43.2 29 -10.4 13.2
17:00 1024 30.24 853 25.19 5.8 42.4 32 -9.6 14.7
17:05 1024 30.24 853 25.19 5.4 41.8 32 -10 13.9
17:10 1024 30.24 854 25.22 5.6 42.2 32 -9.7 14.5
17:15 1024 30.24 854 25.22 5.7 42.3 32 -9.7 14.6
17:20 1024 30.24 854 25.22 6 42.8 30 -10.1 13.8
17:25 1025 30.27 854 25.22 6.2 43.1 31 -9.9 14.2
17:30 1025 30.27 854 25.22 6.1 43 30 -10.3 13.5
17:35 1025 30.27 854 25.22 6.3 43.3 29 -10.6 12.9
17:40 1025 30.27 854 25.22 6.3 43.4 30 -10.1 13.8
17:45 1025 30.27 854 25.22 6.1 43.1 30 -10 14
17:50 1025 30.27 854 25.22 6 42.7 30 -10.2 13.7
17:55 1025 30.27 854 25.22 5.9 42.6 31 -10 14
18:00 1025 30.27 854 25.22 5.7 42.3 30 -10.5 13
18:05 1025 30.27 854 25.22 5.7 42.3 30 -10.5 13
18:10 1025 30.27 854 25.22 5.7 42.3 31 -10.3 13.4
18:15 1025 30.27 854 25.22 5.4 41.8 31 -10.5 13
18:20 1025 30.27 854 25.22 5.4 41.7 30 -10.8 12.6
18:25 1025 30.27 854 25.22 5.6 42.2 29 -10.9 12.3
18:30 1025 30.27 854 25.22 5.7 42.2 30 -10.6 13
18:35 1025 30.27 854 25.22 5.4 41.8 30 -10.6 12.8
18:40 1025 30.27 854 25.22 5.5 41.8 31 -10.3 13.5
18:45 1025 30.27 854 25.22 5.3 41.5 32 -10.3 13.5
18:50 1025 30.27 854 25.22 5.2 41.3 33 -9.7 14.6
18:55 1025 30.27 854 25.22 5 41 31 -10.7 12.8
19:00 1025 30.27 854 25.22 5.2 41.4 31 -10.7 12.7
19:05 1025 30.27 854 25.22 5.3 41.6 31 -10.5 13.1
19:10 1025 30.27 854 25.22 5.2 41.3 33 -9.7 14.6
19:15 1025 30.27 854 25.22 4.7 40.5 35 -9.6 14.8
19:20 1025 30.27 854 25.22 4.4 39.9 37 -9.1 15.6
19:25 1025 30.27 854 25.22 4.2 39.6 36 -9.8 14.4
19:30 1025 30.27 854 25.22 4.3 39.7 33 -10.6 13
19:35 1025 30.27 854 25.22 4.7 40.5 32 -10.8 12.6
19:40 1025 30.27 854 25.22 5.1 41.1 31 -10.9 12.4
19:45 1025 30.27 854 25.22 5.2 41.3 31 -10.5 13.1
19:50 1025 30.27 854 25.22 5.2 41.3 31 -10.6 12.9
19:55 1025 30.27 854 25.22 5.1 41.1 32 -10.4 13.3
20:00 1025 30.27 854 25.22 4.9 40.9 32 -10.6 12.9
20:05 1025 30.27 854 25.22 5 41 31 -10.7 12.8
20:10 1025 30.27 854 25.22 4.9 40.9 32 -10.5 13.1
20:15 1025 30.27 854 25.22 4.9 40.9 32 -10.6 12.9
20:20 1025 30.27 854 25.22 4.9 40.8 32 -10.4 13.4
20:25 1025 30.27 854 25.22 4.7 40.5 32 -10.4 13.2
20:30 1025 30.27 854 25.22 4.7 40.5 33 -10.4 13.3
20:35 1025 30.27 854 25.22 4.8 40.6 32 -10.6 13
20:40 1025 30.27 854 25.22 4.9 40.9 31 -10.7 12.8
20:45 1025 30.27 855 25.25 4.9 40.9 32 -10.4 13.3
20:50 1025 30.27 855 25.25 4.8 40.6 33 -10.1 13.8
20:55 1025 30.27 855 25.25 4.6 40.3 33 -10.3 13.5
21:00 1025 30.27 855 25.25 4.7 40.5 33 -10.3 13.5
21:05 1025 30.27 855 25.25 4.9 40.9 32 -10.4 13.2
21:10 1026 30.3 855 25.25 5 41 32 -10.5 13.1
21:15 1026 30.3 855 25.25 5 41.1 31 -10.6 13
21:20 1026 30.3 855 25.25 5.1 41.2 32 -10.4 13.2
21:25 1026 30.3 855 25.25 5.1 41.2 33 -10.1 13.9
21:30 1026 30.3 855 25.25 4.5 40.1 35 -9.6 14.7
21:35 1026 30.3 855 25.25 3.9 39 36 -10 14
21:40 1026 30.3 855 25.25 3.7 38.7 37 -9.6 14.8
21:45 1026 30.3 855 25.25 3.5 38.4 38 -9.6 14.7
21:50 1026 30.3 855 25.25 3.5 38.4 38 -9.4 15.1
21:55 1026 30.3 855 25.25 3.3 37.9 41 -8.7 16.3
22:00 1026 30.3 855 25.25 3 37.4 42 -8.7 16.3
22:05 1026 30.3 855 25.25 3.5 38.3 35 -10.6 12.9
22:10 1026 30.3 855 25.25 4.3 39.7 34 -10.3 13.5
22:15 1026 30.3 855 25.25 4.3 39.8 34 -10.2 13.6
22:20 1026 30.3 855 25.25 4.2 39.6 35 -10 14
22:25 1026 30.3 855 25.25 3.9 39 36 -9.8 14.3
22:30 1026 30.3 855 25.25 4 39.3 36 -9.8 14.4
22:35 1026 30.3 855 25.25 4 39.2 36 -9.8 14.4
22:40 1026 30.3 856 25.28 3.9 39.1 36 -9.8 14.3
22:45 1026 30.3 855 25.25 3.8 38.9 37 -9.6 14.6
22:50 1026 30.3 856 25.28 3.7 38.6 38 -9.5 15
22:55 1026 30.3 856 25.28 3.5 38.4 37 -9.7 14.6
23:00 1026 30.3 856 25.28 3.6 38.5 36 -10 13.9
23:05 1026 30.3 856 25.28 3.8 38.9 35 -10.2 13.7
23:10 1026 30.3 856 25.28 3.9 39 37 -9.7 14.6
23:15 1026 30.3 856 25.28 3.8 38.8 37 -9.7 14.5
23:20 1027 30.33 856 25.28 3.8 38.8 37 -9.7 14.5
23:25 1027 30.33 856 25.28 3.7 38.7 38 -9.3 15.2
23:30 1027 30.33 856 25.28 3.4 38.2 39 -9.2 15.5
23:35 1027 30.33 856 25.28 3.3 37.9 38 -9.6 14.8
23:40 1027 30.33 856 25.28 3.4 38.1 38 -9.8 14.4
23:45 1027 30.33 856 25.28 3.6 38.4 37 -9.8 14.4
23:50 1027 30.33 856 25.28 3.6 38.4 37 -9.7 14.5
23:55 1027 30.33 856 25.28 3.5 38.3 38 -9.5 14.9
24:00 1027 30.33 856 25.28 3.4 38.1 38 -9.6 14.8